Time;durP1;ratioP1;P1;durP2;ratioP2;P2;SDS_P1;SDS_P2;PMS_P1;PMS_P2;Temp;Humidity;BMP_temperature;BMP_pressure;BME280_temperature;BME280_humidity;BME280_pressure;Samples;Min_cycle;Max_cycle;Signal;HPM_P1;HPM_P2
2021/03/08 00:01:22;;;;;;;49.67;36.00;;;;;;;;;;5029019;28;20404;-86
2021/03/08 00:03:48;;;;;;;53.28;35.92;;;;;;;;;;5029350;28;20851;-83
2021/03/08 00:06:14;;;;;;;53.60;35.72;;;;;;;;;;5030318;28;20436;-81
2021/03/08 00:08:40;;;;;;;48.97;34.87;;;;;;;;;;5029394;28;20497;-81
2021/03/08 00:11:06;;;;;;;43.45;32.50;;;;;;;;;;5031521;28;20443;-85
2021/03/08 00:13:32;;;;;;;42.25;32.25;;;;;;;;;;5031311;28;20934;-82
2021/03/08 00:15:58;;;;;;;40.58;31.10;;;;;;;;;;5036283;28;20385;-84
2021/03/08 00:18:25;;;;;;;45.83;32.30;;;;;;;;;;5034669;28;20468;-83
2021/03/08 00:20:52;;;;;;;42.28;31.85;;;;;;;;;;5035415;28;20374;-82
2021/03/08 00:23:18;;;;;;;46.58;31.55;;;;;;;;;;5031225;28;20384;-85
2021/03/08 00:25:44;;;;;;;41.35;29.52;;;;;;;;;;5031559;28;20390;-83
2021/03/08 00:28:10;;;;;;;40.30;29.23;;;;;;;;;;5030241;28;20369;-81
2021/03/08 00:30:36;;;;;;;33.78;26.55;;;;;;;;;;5030583;28;20389;-83
2021/03/08 00:33:02;;;;;;;36.20;28.30;;;;;;;;;;5035872;28;20369;-84
2021/03/08 00:35:28;;;;;;;34.97;27.23;;;;;;;;;;5036026;28;20385;-87
2021/03/08 00:37:54;;;;;;;39.45;29.35;;;;;;;;;;5042803;28;20381;-80
2021/03/08 00:40:21;;;;;;;38.20;28.25;;;;;;;;;;5042511;28;20873;-82
2021/03/08 00:42:48;;;;;;;35.73;27.57;;;;;;;;;;5043050;28;20435;-80
2021/03/08 00:45:16;;;;;;;36.53;27.90;;;;;;;;;;5043122;28;20374;-85
2021/03/08 00:47:42;;;;;;;39.08;27.95;;;;;;;;;;5033201;28;20402;-85
2021/03/08 00:50:09;;;;;;;33.88;27.00;;;;;;;;;;5031895;28;20598;-85
2021/03/08 00:52:35;;;;;;;40.40;28.77;;;;;;;;;;5035078;28;20373;-85
2021/03/08 00:55:01;;;;;;;39.33;27.93;;;;;;;;;;5034196;28;20440;-82
2021/03/08 00:57:27;;;;;;;34.87;26.97;;;;;;;;;;5035349;28;20378;-85
2021/03/08 00:59:53;;;;;;;40.20;28.88;;;;;;;;;;5033748;28;20942;-83
2021/03/08 01:02:19;;;;;;;35.60;26.48;;;;;;;;;;5034931;28;20378;-84
2021/03/08 01:04:45;;;;;;;33.60;26.23;;;;;;;;;;5033661;28;20424;-83
2021/03/08 01:07:11;;;;;;;34.27;25.77;;;;;;;;;;5034811;28;20540;-85
2021/03/08 01:09:37;;;;;;;32.67;23.70;;;;;;;;;;5034471;28;20439;-83
2021/03/08 01:12:04;;;;;;;31.92;23.98;;;;;;;;;;5032169;28;20383;-83
2021/03/08 01:14:30;;;;;;;37.05;25.60;;;;;;;;;;5033273;28;20390;-85
2021/03/08 01:16:56;;;;;;;34.50;23.83;;;;;;;;;;5033822;28;20409;-83
2021/03/08 01:19:22;;;;;;;33.10;24.48;;;;;;;;;;5034109;28;20867;-83
2021/03/08 01:21:48;;;;;;;34.10;23.57;;;;;;;;;;5035539;28;20416;-87
2021/03/08 01:24:14;;;;;;;29.63;22.50;;;;;;;;;;5035427;28;20431;-81
2021/03/08 01:26:40;;;;;;;29.35;21.92;;;;;;;;;;5034475;28;20432;-82
2021/03/08 01:29:06;;;;;;;27.35;21.83;;;;;;;;;;5034652;28;20393;-85
2021/03/08 01:31:32;;;;;;;27.23;20.90;;;;;;;;;;5032750;28;20374;-82
2021/03/08 01:33:58;;;;;;;33.35;21.88;;;;;;;;;;5030891;28;20373;-80
2021/03/08 01:36:24;;;;;;;29.80;21.10;;;;;;;;;;5032644;28;20709;-82
2021/03/08 01:38:50;;;;;;;26.25;19.65;;;;;;;;;;5032305;28;20388;-84
2021/03/08 01:41:16;;;;;;;26.38;18.27;;;;;;;;;;5030784;28;20393;-80
2021/03/08 01:43:42;;;;;;;29.03;18.90;;;;;;;;;;5029411;28;20761;-81
2021/03/08 01:46:08;;;;;;;27.80;18.60;;;;;;;;;;5031409;28;20496;-83
2021/03/08 01:48:34;;;;;;;25.60;17.88;;;;;;;;;;5030636;28;20392;-83
2021/03/08 01:51:00;;;;;;;23.07;16.57;;;;;;;;;;5029929;28;20786;-83
2021/03/08 01:53:28;;;;;;;21.45;16.63;;;;;;;;;;5030140;28;20424;-82
2021/03/08 01:55:55;;;;;;;22.67;15.63;;;;;;;;;;5031151;28;20907;-82
2021/03/08 01:58:21;;;;;;;26.60;16.50;;;;;;;;;;5031113;28;20377;-79
2021/03/08 02:00:47;;;;;;;22.30;15.80;;;;;;;;;;5030288;28;20481;-81
2021/03/08 02:03:13;;;;;;;21.75;15.65;;;;;;;;;;5031691;28;20437;-81
2021/03/08 02:05:40;;;;;;;25.20;15.52;;;;;;;;;;5031637;28;20377;-81
2021/03/08 02:08:07;;;;;;;21.48;14.95;;;;;;;;;;5030017;28;20416;-81
2021/03/08 02:10:35;;;;;;;19.98;13.75;;;;;;;;;;5029918;28;20366;-85
2021/03/08 02:13:01;;;;;;;18.05;11.75;;;;;;;;;;5029989;28;20389;-82
2021/03/08 02:15:46;;;;;;;16.17;11.50;;;;;;;;;;5029748;28;20389;-85
2021/03/08 02:18:15;;;;;;;17.10;11.82;;;;;;;;;;5031053;28;20452;-81
2021/03/08 02:20:59;;;;;;;18.27;11.40;;;;;;;;;;5029511;28;20413;-81
2021/03/08 02:23:34;;;;;;;19.83;11.82;;;;;;;;;;5029745;28;21080;-84
2021/03/08 02:26:06;;;;;;;17.50;9.93;;;;;;;;;;5030707;28;20382;-84
2021/03/08 02:29:11;;;;;;;14.73;10.02;;;;;;;;;;5029282;28;20381;-82
2021/03/08 02:31:37;;;;;;;14.60;9.25;;;;;;;;;;4992143;28;20889;-84
2021/03/08 02:34:06;;;;;;;11.15;7.85;;;;;;;;;;4992111;28;20422;-83
2021/03/08 02:36:34;;;;;;;13.45;8.50;;;;;;;;;;5019154;28;20374;-87
2021/03/08 02:39:02;;;;;;;15.23;8.68;;;;;;;;;;5030756;28;20417;-83
2021/03/08 02:41:28;;;;;;;13.43;8.07;;;;;;;;;;5030584;28;20383;-85
2021/03/08 02:44:00;;;;;;;15.33;7.73;;;;;;;;;;5030554;28;20400;-87
2021/03/08 02:46:28;;;;;;;13.23;7.40;;;;;;;;;;5030617;28;20506;-80
2021/03/08 02:48:55;;;;;;;13.25;6.90;;;;;;;;;;5029236;28;20950;-83
2021/03/08 02:51:23;;;;;;;12.73;6.80;;;;;;;;;;5030389;28;20412;-87
2021/03/08 02:53:50;;;;;;;12.83;6.70;;;;;;;;;;5028732;28;20440;-85
2021/03/08 02:56:21;;;;;;;12.05;6.97;;;;;;;;;;5030926;28;20374;-81
2021/03/08 02:58:48;;;;;;;14.48;6.63;;;;;;;;;;5028804;28;20393;-83
2021/03/08 03:01:16;;;;;;;13.02;6.57;;;;;;;;;;5028629;28;20374;-80
2021/03/08 03:03:44;;;;;;;11.68;7.05;;;;;;;;;;5029168;28;20377;-86
2021/03/08 03:06:10;;;;;;;14.02;7.30;;;;;;;;;;5030473;28;20408;-82
2021/03/08 03:08:38;;;;;;;12.73;7.03;;;;;;;;;;5029951;28;20397;-87
2021/03/08 03:11:04;;;;;;;15.20;7.10;;;;;;;;;;5029153;28;20366;-83
2021/03/08 03:13:31;;;;;;;14.93;7.40;;;;;;;;;;5029217;28;20393;-85
2021/03/08 03:15:58;;;;;;;15.43;7.43;;;;;;;;;;5028829;28;20377;-84
2021/03/08 03:18:26;;;;;;;13.23;7.30;;;;;;;;;;5029857;28;20382;-80
2021/03/08 03:20:53;;;;;;;13.33;6.60;;;;;;;;;;5029373;28;20377;-85
2021/03/08 03:23:21;;;;;;;11.57;6.35;;;;;;;;;;5033767;28;20378;-79
2021/03/08 03:25:48;;;;;;;12.98;6.70;;;;;;;;;;5033487;28;20369;-82
2021/03/08 03:28:14;;;;;;;15.70;6.80;;;;;;;;;;5033127;28;20408;-79
2021/03/08 03:30:41;;;;;;;14.13;6.60;;;;;;;;;;5034005;28;20361;-85
2021/03/08 03:33:07;;;;;;;12.13;5.93;;;;;;;;;;5029898;28;20381;-83
2021/03/08 03:35:33;;;;;;;13.57;6.15;;;;;;;;;;5028570;28;20385;-84
2021/03/08 03:38:00;;;;;;;10.20;5.60;;;;;;;;;;5028453;28;20401;-84
2021/03/08 03:40:26;;;;;;;12.60;6.05;;;;;;;;;;5029906;28;20400;-83
2021/03/08 03:42:52;;;;;;;11.77;6.17;;;;;;;;;;5030271;28;20924;-82
2021/03/08 03:45:19;;;;;;;12.60;6.30;;;;;;;;;;5038392;28;20369;-84
2021/03/08 03:47:46;;;;;;;13.07;5.88;;;;;;;;;;5036398;28;20413;-79
2021/03/08 03:50:14;;;;;;;12.60;6.03;;;;;;;;;;5037871;28;20448;-78
2021/03/08 03:52:40;;;;;;;12.30;5.90;;;;;;;;;;5030195;28;20422;-84
2021/03/08 03:55:08;;;;;;;13.02;5.55;;;;;;;;;;5028710;28;20736;-86
2021/03/08 03:57:54;;;;;;;12.57;6.18;;;;;;;;;;5029557;28;20381;-83
2021/03/08 04:00:23;;;;;;;11.57;6.35;;;;;;;;;;5028323;28;20404;-81
2021/03/08 04:02:52;;;;;;;11.65;5.75;;;;;;;;;;5028276;28;20456;-81
2021/03/08 04:05:23;;;;;;;9.67;5.73;;;;;;;;;;5028260;28;20404;-84
2021/03/08 04:07:50;;;;;;;12.52;6.00;;;;;;;;;;5032942;28;20478;-84
2021/03/08 04:10:18;;;;;;;12.25;5.97;;;;;;;;;;5031984;28;20389;-83
2021/03/08 04:12:46;;;;;;;10.75;5.53;;;;;;;;;;5033691;28;20384;-82
2021/03/08 04:15:13;;;;;;;13.10;5.93;;;;;;;;;;5031929;28;20377;-80
2021/03/08 04:17:43;;;;;;;11.18;5.63;;;;;;;;;;5032421;28;20392;-82
2021/03/08 04:20:13;;;;;;;12.32;5.53;;;;;;;;;;5034207;28;20381;-85
2021/03/08 04:22:39;;;;;;;11.67;5.70;;;;;;;;;;5033730;28;20369;-85
2021/03/08 04:25:08;;;;;;;11.70;5.97;;;;;;;;;;5034068;28;20370;-86
2021/03/08 04:27:34;;;;;;;13.32;6.43;;;;;;;;;;5032578;28;20417;-86
2021/03/08 04:30:01;;;;;;;11.45;5.82;;;;;;;;;;5034058;28;20374;-83
2021/03/08 04:32:27;;;;;;;10.52;5.93;;;;;;;;;;5032665;28;20807;-83
2021/03/08 04:34:53;;;;;;;11.82;6.30;;;;;;;;;;5033872;28;20864;-85
2021/03/08 04:37:19;;;;;;;11.43;6.00;;;;;;;;;;5033331;28;20412;-82
2021/03/08 04:39:46;;;;;;;10.98;6.03;;;;;;;;;;5031693;28;20376;-86
2021/03/08 04:42:14;;;;;;;11.15;6.20;;;;;;;;;;5032758;28;20382;-83
2021/03/08 04:44:40;;;;;;;12.00;6.57;;;;;;;;;;5032852;28;20388;-89
2021/03/08 04:47:07;;;;;;;13.02;6.72;;;;;;;;;;5033006;28;20409;-84
2021/03/08 04:49:34;;;;;;;16.50;6.75;;;;;;;;;;5033070;28;20847;-81
2021/03/08 04:52:00;;;;;;;12.37;6.90;;;;;;;;;;5032962;28;20377;-82
2021/03/08 04:54:26;;;;;;;13.07;7.45;;;;;;;;;;5034136;28;20370;-84
2021/03/08 04:56:54;;;;;;;15.55;6.80;;;;;;;;;;5032894;28;20389;-87
2021/03/08 04:59:20;;;;;;;12.18;6.57;;;;;;;;;;5034584;28;20460;-78
2021/03/08 05:01:48;;;;;;;17.13;7.22;;;;;;;;;;5033302;28;20390;-87
2021/03/08 05:04:17;;;;;;;14.15;6.65;;;;;;;;;;5032814;28;20386;-82
2021/03/08 05:06:43;;;;;;;13.23;6.20;;;;;;;;;;5032924;28;20402;-83
2021/03/08 05:09:10;;;;;;;12.50;5.90;;;;;;;;;;5031400;28;20508;-84
2021/03/08 05:11:36;;;;;;;13.95;6.22;;;;;;;;;;5031210;28;20393;-81
2021/03/08 05:14:04;;;;;;;12.65;6.50;;;;;;;;;;5032516;28;20751;-82
2021/03/08 05:16:32;;;;;;;10.87;6.30;;;;;;;;;;5031466;28;20449;-81
2021/03/08 05:19:00;;;;;;;10.70;5.85;;;;;;;;;;5032314;28;20365;-86
2021/03/08 05:21:26;;;;;;;8.70;5.93;;;;;;;;;;5032198;28;20751;-80
2021/03/08 05:23:52;;;;;;;14.57;5.93;;;;;;;;;;5032788;28;20438;-83
2021/03/08 05:26:18;;;;;;;11.10;5.95;;;;;;;;;;5030818;28;20401;-88
2021/03/08 05:28:44;;;;;;;13.25;6.30;;;;;;;;;;5030649;28;20480;-83
2021/03/08 05:31:11;;;;;;;11.90;6.30;;;;;;;;;;5032153;28;20484;-82
2021/03/08 05:33:38;;;;;;;14.20;6.25;;;;;;;;;;5031203;28;20370;-85
2021/03/08 05:36:04;;;;;;;9.38;6.40;;;;;;;;;;5032093;28;20460;-85
2021/03/08 05:38:31;;;;;;;11.95;5.88;;;;;;;;;;5030880;28;20397;-80
2021/03/08 05:40:57;;;;;;;12.13;6.40;;;;;;;;;;5032168;28;20485;-85
2021/03/08 05:43:25;;;;;;;13.43;7.32;;;;;;;;;;5030239;28;20468;-85
2021/03/08 05:45:54;;;;;;;11.95;6.80;;;;;;;;;;5032253;28;20468;-84
2021/03/08 05:48:36;;;;;;;11.20;5.93;;;;;;;;;;5032203;28;20390;-80
2021/03/08 05:51:20;;;;;;;10.95;6.00;;;;;;;;;;5031604;28;20449;-86
2021/03/08 05:53:59;;;;;;;11.48;6.30;;;;;;;;;;5028588;28;20406;-83
2021/03/08 05:56:28;;;;;;;13.00;6.28;;;;;;;;;;5027644;28;20448;-85
2021/03/08 05:58:54;;;;;;;14.60;6.13;;;;;;;;;;5031482;28;20520;-88
2021/03/08 06:01:20;;;;;;;11.60;6.55;;;;;;;;;;5032159;28;20490;-89
2021/03/08 06:04:01;;;;;;;10.77;5.90;;;;;;;;;;5032126;28;20417;-87
2021/03/08 06:07:04;;;;;;;11.47;6.00;;;;;;;;;;5027190;28;20503;-87
2021/03/08 06:09:39;;;;;;;10.73;6.05;;;;;;;;;;4989183;28;20382;-88
2021/03/08 06:12:06;;;;;;;10.80;7.35;;;;;;;;;;5018826;28;20446;-85
2021/03/08 06:14:40;;;;;;;11.88;5.93;;;;;;;;;;5031030;28;20373;-85
2021/03/08 06:17:06;;;;;;;18.92;6.63;;;;;;;;;;5031102;28;20386;-86
2021/03/08 06:19:32;;;;;;;12.95;6.57;;;;;;;;;;5031368;28;20512;-90
2021/03/08 06:21:59;;;;;;;13.63;6.60;;;;;;;;;;5030957;28;21228;-90
2021/03/08 06:24:26;;;;;;;14.07;7.53;;;;;;;;;;5029994;28;20373;-85
2021/03/08 06:26:52;;;;;;;13.15;8.25;;;;;;;;;;5028474;28;20951;-89
2021/03/08 06:29:19;;;;;;;14.75;8.40;;;;;;;;;;5028939;28;20460;-87
2021/03/08 06:31:45;;;;;;;11.13;6.57;;;;;;;;;;5029026;28;20372;-90
2021/03/08 06:34:11;;;;;;;11.13;6.55;;;;;;;;;;5030234;28;20373;-90
2021/03/08 06:36:37;;;;;;;12.40;6.00;;;;;;;;;;5031634;28;20373;-83
2021/03/08 06:39:04;;;;;;;9.55;6.05;;;;;;;;;;5029863;28;20397;-86
2021/03/08 06:41:32;;;;;;;9.63;5.68;;;;;;;;;;5030302;28;20757;-85
2021/03/08 06:44:02;;;;;;;12.30;6.13;;;;;;;;;;5026288;28;20381;-88
2021/03/08 06:46:28;;;;;;;12.55;5.50;;;;;;;;;;5030222;28;20401;-85
2021/03/08 06:48:54;;;;;;;9.98;5.63;;;;;;;;;;5029480;28;20420;-88
2021/03/08 06:51:21;;;;;;;8.35;5.20;;;;;;;;;;5029134;28;20415;-87
2021/03/08 06:53:47;;;;;;;10.10;5.57;;;;;;;;;;5029931;28;20395;-84
2021/03/08 06:56:13;;;;;;;12.50;6.45;;;;;;;;;;5030703;28;20373;-89
2021/03/08 06:58:40;;;;;;;10.27;5.20;;;;;;;;;;5030512;28;20418;-86
2021/03/08 07:01:13;;;;;;;9.10;5.45;;;;;;;;;;5030869;28;20453;-87
2021/03/08 07:03:39;;;;;;;10.25;4.93;;;;;;;;;;5029912;28;20370;-88
2021/03/08 07:06:18;;;;;;;9.80;5.13;;;;;;;;;;5030815;28;20472;-90
2021/03/08 07:08:45;;;;;;;9.60;4.80;;;;;;;;;;5028611;28;20472;-85
2021/03/08 07:11:22;;;;;;;8.60;4.82;;;;;;;;;;5030597;28;20824;-88
2021/03/08 07:13:48;;;;;;;9.83;4.70;;;;;;;;;;5027051;28;20496;-88
2021/03/08 07:16:14;;;;;;;10.45;4.47;;;;;;;;;;5038463;28;20374;-84
2021/03/08 07:18:41;;;;;;;8.25;4.35;;;;;;;;;;5037346;28;20389;-84
2021/03/08 07:21:20;;;;;;;8.45;4.50;;;;;;;;;;5036977;28;20369;-86
2021/03/08 07:23:48;;;;;;;9.98;5.00;;;;;;;;;;5026576;28;20384;-88
2021/03/08 07:26:15;;;;;;;9.27;4.60;;;;;;;;;;5029388;28;20374;-86
2021/03/08 07:28:42;;;;;;;8.10;4.53;;;;;;;;;;5025689;28;20389;-85
2021/03/08 07:31:08;;;;;;;8.05;4.25;;;;;;;;;;5028073;28;20370;-86
2021/03/08 07:33:34;;;;;;;8.07;4.43;;;;;;;;;;5028855;28;20409;-86
2021/03/08 07:36:00;;;;;;;8.93;4.25;;;;;;;;;;5028434;28;20388;-86
2021/03/08 07:38:30;;;;;;;8.77;4.15;;;;;;;;;;5030011;28;20381;-87
2021/03/08 07:41:10;;;;;;;9.40;4.40;;;;;;;;;;5029963;28;20392;-88
2021/03/08 07:43:36;;;;;;;7.53;3.72;;;;;;;;;;5028627;28;20370;-89
2021/03/08 07:46:02;;;;;;;7.20;3.77;;;;;;;;;;5028887;28;20366;-91
2021/03/08 07:48:28;;;;;;;8.57;4.20;;;;;;;;;;5041182;28;20400;-84
2021/03/08 07:50:54;;;;;;;9.00;3.72;;;;;;;;;;5036781;28;20437;-87
2021/03/08 07:53:24;;;;;;;8.07;3.55;;;;;;;;;;5039012;28;20400;-85
2021/03/08 07:55:50;;;;;;;8.13;3.80;;;;;;;;;;5037950;28;21083;-90
2021/03/08 07:58:17;;;;;;;7.18;3.50;;;;;;;;;;5029171;28;20411;-88
2021/03/08 08:00:43;;;;;;;6.32;3.33;;;;;;;;;;5028690;28;20378;-88
2021/03/08 08:03:09;;;;;;;4.83;2.80;;;;;;;;;;5030344;28;20393;-87
2021/03/08 08:05:34;;;;;;;6.80;3.30;;;;;;;;;;5028701;28;20378;-88
2021/03/08 08:08:01;;;;;;;4.55;2.83;;;;;;;;;;5028776;28;20453;-85
2021/03/08 08:10:28;;;;;;;5.60;3.10;;;;;;;;;;5029376;28;20794;-86
2021/03/08 08:12:59;;;;;;;4.78;2.50;;;;;;;;;;5029422;28;20381;-85
2021/03/08 08:15:26;;;;;;;5.78;2.40;;;;;;;;;;5028992;28;20903;-88
2021/03/08 08:17:54;;;;;;;5.85;2.35;;;;;;;;;;5029946;28;20871;-83
2021/03/08 08:20:21;;;;;;;6.07;2.60;;;;;;;;;;5032520;28;20393;-88
2021/03/08 08:22:54;;;;;;;5.97;2.40;;;;;;;;;;5033266;28;20470;-86
2021/03/08 08:25:20;;;;;;;3.47;2.25;;;;;;;;;;5029008;28;20381;-86
2021/03/08 08:27:47;;;;;;;4.97;2.22;;;;;;;;;;5028853;28;20401;-85
2021/03/08 08:30:14;;;;;;;2.90;2.05;;;;;;;;;;5028818;28;20385;-87
2021/03/08 08:32:51;;;;;;;4.78;2.08;;;;;;;;;;5032042;28;20901;-88
2021/03/08 08:35:18;;;;;;;3.20;1.83;;;;;;;;;;5031438;28;20463;-88
2021/03/08 08:37:44;;;;;;;3.22;1.77;;;;;;;;;;5029496;28;20389;-88
2021/03/08 08:40:10;;;;;;;4.65;1.90;;;;;;;;;;5029565;28;20476;-90
2021/03/08 08:42:36;;;;;;;5.13;1.98;;;;;;;;;;5028760;28;20370;-86
2021/03/08 08:45:22;;;;;;;4.32;2.15;;;;;;;;;;5024797;28;20385;-89
2021/03/08 08:48:02;;;;;;;3.88;1.88;;;;;;;;;;5025837;28;20977;-88
2021/03/08 08:50:28;;;;;;;3.87;1.73;;;;;;;;;;5026558;28;20389;-86
2021/03/08 08:52:56;;;;;;;3.63;1.70;;;;;;;;;;5030848;28;20464;-85
2021/03/08 08:55:22;;;;;;;3.87;1.63;;;;;;;;;;5033331;28;20396;-89
2021/03/08 08:58:16;;;;;;;6.22;2.70;;;;;;;;;;5031029;28;20373;-91
2021/03/08 09:00:43;;;;;;;3.00;1.50;;;;;;;;;;5032023;28;20752;-85
2021/03/08 09:03:17;;;;;;;3.35;1.60;;;;;;;;;;5031396;28;20382;-89
2021/03/08 09:05:43;;;;;;;3.67;1.65;;;;;;;;;;5032431;28;20456;-90
2021/03/08 09:08:30;;;;;;;3.77;1.40;;;;;;;;;;5031779;28;20443;-83
2021/03/08 09:10:57;;;;;;;3.70;1.60;;;;;;;;;;5030601;28;20377;-86
2021/03/08 09:13:25;;;;;;;3.25;1.67;;;;;;;;;;5031476;28;20393;-87
2021/03/08 09:15:53;;;;;;;3.53;1.50;;;;;;;;;;5030133;28;20448;-89
2021/03/08 09:18:32;;;;;;;3.67;1.55;;;;;;;;;;5030841;28;20729;-88
2021/03/08 09:21:19;;;;;;;3.38;1.52;;;;;;;;;;5031667;28;20389;-84
2021/03/08 09:23:45;;;;;;;2.88;1.23;;;;;;;;;;5030323;28;20393;-90
2021/03/08 09:26:11;;;;;;;2.13;1.25;;;;;;;;;;5032539;28;20375;-85
2021/03/08 09:28:45;;;;;;;2.90;1.30;;;;;;;;;;5032353;28;20374;-88
2021/03/08 09:31:17;;;;;;;4.18;1.42;;;;;;;;;;5032020;28;20373;-85
2021/03/08 09:33:45;;;;;;;2.15;1.35;;;;;;;;;;5032296;28;20440;-87
2021/03/08 09:36:11;;;;;;;2.88;1.10;;;;;;;;;;5031006;28;20417;-91
2021/03/08 09:38:37;;;;;;;3.97;1.60;;;;;;;;;;5029327;28;20832;-86
2021/03/08 09:41:05;;;;;;;2.42;1.13;;;;;;;;;;5028671;28;20417;-86
2021/03/08 09:43:32;;;;;;;4.57;1.30;;;;;;;;;;5028427;28;20494;-86
2021/03/08 09:45:58;;;;;;;2.70;1.30;;;;;;;;;;5029301;28;20393;-84
2021/03/08 09:48:24;;;;;;;3.42;1.23;;;;;;;;;;5028809;28;20405;-90
2021/03/08 09:50:50;;;;;;;2.08;1.27;;;;;;;;;;5029148;28;20373;-88
2021/03/08 09:53:16;;;;;;;2.58;1.33;;;;;;;;;;5030572;28;20381;-86
2021/03/08 09:55:43;;;;;;;3.70;1.20;;;;;;;;;;5028920;28;20385;-87
2021/03/08 09:58:13;;;;;;;2.35;1.23;;;;;;;;;;5029520;28;20374;-88
2021/03/08 10:00:40;;;;;;;3.95;1.73;;;;;;;;;;5030400;28;20385;-85
2021/03/08 10:03:07;;;;;;;2.47;1.23;;;;;;;;;;5029376;28;20389;-87
2021/03/08 10:05:42;;;;;;;3.47;1.20;;;;;;;;;;5028887;28;20385;-87
2021/03/08 10:08:08;;;;;;;2.15;1.10;;;;;;;;;;5029370;28;21042;-86
2021/03/08 10:10:38;;;;;;;2.28;1.10;;;;;;;;;;5032316;28;20791;-86
2021/03/08 10:13:05;;;;;;;3.17;1.30;;;;;;;;;;5029203;28;20382;-84
2021/03/08 10:15:39;;;;;;;3.03;1.25;;;;;;;;;;5027191;28;20775;-86
2021/03/08 10:18:05;;;;;;;3.73;1.30;;;;;;;;;;5029061;28;20381;-84
2021/03/08 10:20:32;;;;;;;2.38;1.00;;;;;;;;;;5029653;28;20887;-83
2021/03/08 10:22:58;;;;;;;2.78;1.10;;;;;;;;;;5028110;28;20412;-85
2021/03/08 10:25:34;;;;;;;3.03;1.08;;;;;;;;;;5030039;28;21244;-87
2021/03/08 10:28:01;;;;;;;2.13;0.90;;;;;;;;;;5029730;28;20974;-82
2021/03/08 10:30:28;;;;;;;3.65;2.00;;;;;;;;;;5029525;28;20390;-84
2021/03/08 10:33:01;;;;;;;2.35;1.25;;;;;;;;;;5027457;28;20428;-83
2021/03/08 10:35:27;;;;;;;2.83;1.15;;;;;;;;;;5028424;28;20389;-83
2021/03/08 10:37:54;;;;;;;3.07;0.90;;;;;;;;;;5027987;28;20438;-82
2021/03/08 10:40:22;;;;;;;2.67;1.10;;;;;;;;;;5029386;28;20385;-86
2021/03/08 10:42:48;;;;;;;3.22;1.20;;;;;;;;;;5027878;28;20389;-85
2021/03/08 10:45:15;;;;;;;3.03;1.10;;;;;;;;;;5027974;28;20414;-81
2021/03/08 10:47:41;;;;;;;2.38;1.00;;;;;;;;;;5027652;28;20417;-84
2021/03/08 10:50:07;;;;;;;2.67;1.20;;;;;;;;;;5031746;28;20376;-84
2021/03/08 10:52:34;;;;;;;2.53;0.90;;;;;;;;;;5028686;28;20849;-84
2021/03/08 10:55:00;;;;;;;2.20;0.98;;;;;;;;;;5031735;28;20370;-86
2021/03/08 10:57:27;;;;;;;3.78;0.90;;;;;;;;;;5030036;28;20397;-86
2021/03/08 11:00:00;;;;;;;3.10;1.00;;;;;;;;;;5033376;28;20385;-87
2021/03/08 11:02:26;;;;;;;1.53;1.00;;;;;;;;;;5029337;28;20398;-90
2021/03/08 11:04:53;;;;;;;1.92;0.93;;;;;;;;;;5029358;28;20914;-87
2021/03/08 11:07:32;;;;;;;2.20;0.95;;;;;;;;;;5031860;28;20467;-82
2021/03/08 11:09:59;;;;;;;2.33;1.17;;;;;;;;;;5027855;28;20875;-89
2021/03/08 11:12:25;;;;;;;2.20;0.80;;;;;;;;;;5027070;28;20373;-82
2021/03/08 11:14:53;;;;;;;3.47;0.98;;;;;;;;;;5029593;28;20906;-88
2021/03/08 11:17:29;;;;;;;2.20;0.98;;;;;;;;;;5030290;28;21009;-84
2021/03/08 11:20:09;;;;;;;2.20;1.00;;;;;;;;;;5028640;28;20855;-93
2021/03/08 11:22:53;;;;;;;1.33;0.90;;;;;;;;;;5029871;28;20374;-82
2021/03/08 11:25:33;;;;;;;3.72;1.40;;;;;;;;;;5026068;28;20786;-87
2021/03/08 11:28:00;;;;;;;5.83;3.60;;;;;;;;;;5027272;28;20442;-81
2021/03/08 11:30:29;;;;;;;10.53;6.40;;;;;;;;;;5028806;28;20486;-85
2021/03/08 11:32:57;;;;;;;2.30;1.70;;;;;;;;;;5029224;28;20385;-82
2021/03/08 11:35:30;;;;;;;2.55;1.33;;;;;;;;;;5027948;28;20535;-84
2021/03/08 11:38:03;;;;;;;1.55;0.90;;;;;;;;;;5028362;28;20369;-86
2021/03/08 11:40:30;;;;;;;1.67;0.70;;;;;;;;;;5025608;28;20963;-87
2021/03/08 11:42:56;;;;;;;1.70;0.90;;;;;;;;;;5029418;28;20420;-85
2021/03/08 11:45:23;;;;;;;1.15;0.80;;;;;;;;;;5028122;28;20799;-86
2021/03/08 11:47:55;;;;;;;1.30;0.90;;;;;;;;;;5028312;28;20409;-84
2021/03/08 11:50:22;;;;;;;3.10;1.40;;;;;;;;;;5027451;28;21523;-87
2021/03/08 11:52:48;;;;;;;2.13;1.00;;;;;;;;;;5029199;28;20373;-84
2021/03/08 11:55:16;;;;;;;2.25;0.95;;;;;;;;;;5028352;28;20385;-84
2021/03/08 11:57:42;;;;;;;2.47;1.10;;;;;;;;;;5026217;28;20385;-84
2021/03/08 12:00:09;;;;;;;2.88;1.60;;;;;;;;;;5027689;28;20373;-84
2021/03/08 12:02:35;;;;;;;4.30;1.20;;;;;;;;;;5025491;28;20417;-83
2021/03/08 12:05:01;;;;;;;1.48;0.80;;;;;;;;;;5027241;28;20394;-85
2021/03/08 12:07:27;;;;;;;2.42;0.90;;;;;;;;;;5028237;28;20409;-85
2021/03/08 12:09:53;;;;;;;1.77;0.90;;;;;;;;;;5027097;28;20389;-85
2021/03/08 12:12:19;;;;;;;1.65;0.80;;;;;;;;;;5028727;28;20377;-85
2021/03/08 12:14:45;;;;;;;2.35;0.82;;;;;;;;;;5028269;28;20464;-87
2021/03/08 12:17:11;;;;;;;1.30;0.80;;;;;;;;;;5030314;28;20454;-84
2021/03/08 12:19:37;;;;;;;2.05;0.80;;;;;;;;;;5031653;28;20378;-85
2021/03/08 12:22:04;;;;;;;1.63;1.00;;;;;;;;;;5032813;28;20390;-85
2021/03/08 12:24:31;;;;;;;2.05;1.02;;;;;;;;;;5027343;28;20386;-86
2021/03/08 12:26:56;;;;;;;3.15;1.10;;;;;;;;;;5029485;28;20951;-85
2021/03/08 12:29:22;;;;;;;2.55;1.23;;;;;;;;;;5032395;28;20476;-86
2021/03/08 12:31:48;;;;;;;2.17;1.07;;;;;;;;;;5031840;28;20385;-84
2021/03/08 12:34:14;;;;;;;5.22;4.47;;;;;;;;;;5031491;28;20399;-87
2021/03/08 12:36:40;;;;;;;1.10;0.93;;;;;;;;;;5031393;28;20982;-86
2021/03/08 12:39:07;;;;;;;0.98;0.80;;;;;;;;;;5032453;28;20374;-87
2021/03/08 12:41:33;;;;;;;1.95;0.90;;;;;;;;;;5033180;28;20468;-90
2021/03/08 12:43:59;;;;;;;1.80;0.90;;;;;;;;;;5033884;28;20372;-85
2021/03/08 12:46:25;;;;;;;3.33;1.10;;;;;;;;;;5035307;28;20377;-88
2021/03/08 12:48:51;;;;;;;1.77;0.93;;;;;;;;;;5035670;28;20397;-86
2021/03/08 12:51:18;;;;;;;1.40;0.85;;;;;;;;;;5035908;28;20376;-86
2021/03/08 12:53:45;;;;;;;2.20;0.77;;;;;;;;;;5033875;28;20381;-84
2021/03/08 12:56:11;;;;;;;1.60;0.80;;;;;;;;;;5030086;28;20926;-84
2021/03/08 12:58:39;;;;;;;1.55;0.98;;;;;;;;;;5033035;28;20380;-88
2021/03/08 13:01:05;;;;;;;3.37;1.57;;;;;;;;;;5031935;28;20378;-87
2021/03/08 13:03:31;;;;;;;3.47;1.88;;;;;;;;;;5033281;28;20373;-90
2021/03/08 13:05:57;;;;;;;1.55;0.80;;;;;;;;;;5033535;28;20381;-85
2021/03/08 13:08:23;;;;;;;1.58;1.02;;;;;;;;;;5031061;28;20410;-84
2021/03/08 13:10:49;;;;;;;1.73;0.90;;;;;;;;;;5041738;28;20384;-82
2021/03/08 13:13:15;;;;;;;1.90;0.90;;;;;;;;;;5042754;28;20441;-82
2021/03/08 13:15:42;;;;;;;1.13;0.80;;;;;;;;;;5042139;28;20848;-83
2021/03/08 13:18:08;;;;;;;3.65;1.23;;;;;;;;;;5036338;28;20377;-88
2021/03/08 13:20:35;;;;;;;2.03;0.90;;;;;;;;;;5023724;28;20569;-86
2021/03/08 13:23:01;;;;;;;1.20;0.90;;;;;;;;;;5029321;28;20386;-85
2021/03/08 13:25:28;;;;;;;1.40;0.90;;;;;;;;;;5029882;28;20400;-89
2021/03/08 13:27:54;;;;;;;1.42;0.90;;;;;;;;;;5031700;28;20459;-84
2021/03/08 13:30:21;;;;;;;2.65;1.10;;;;;;;;;;5030805;28;20841;-85
2021/03/08 13:32:47;;;;;;;2.38;1.30;;;;;;;;;;5027896;28;20377;-84
2021/03/08 13:35:17;;;;;;;2.17;1.17;;;;;;;;;;5031738;28;20385;-87
2021/03/08 13:37:44;;;;;;;2.67;0.93;;;;;;;;;;5031575;28;20369;-85
2021/03/08 13:40:10;;;;;;;2.58;1.00;;;;;;;;;;5026636;28;20409;-87
2021/03/08 13:42:58;;;;;;;1.83;0.98;;;;;;;;;;5029623;28;20385;-90
2021/03/08 13:45:24;;;;;;;1.70;1.08;;;;;;;;;;5029155;28;20373;-85
2021/03/08 13:47:51;;;;;;;1.75;1.15;;;;;;;;;;5031755;28;20436;-82
2021/03/08 13:50:17;;;;;;;1.70;1.00;;;;;;;;;;5030480;28;20433;-86
2021/03/08 13:52:43;;;;;;;3.58;1.10;;;;;;;;;;5030353;28;20465;-86
2021/03/08 13:55:09;;;;;;;1.65;1.00;;;;;;;;;;5025191;28;20401;-83
2021/03/08 13:57:35;;;;;;;1.90;0.90;;;;;;;;;;5023282;28;20420;-85
2021/03/08 14:00:01;;;;;;;2.73;1.00;;;;;;;;;;5031517;28;20374;-83
2021/03/08 14:02:27;;;;;;;1.85;0.98;;;;;;;;;;5028283;28;20424;-86
2021/03/08 14:04:54;;;;;;;2.17;1.13;;;;;;;;;;5027875;28;20386;-86
2021/03/08 14:07:20;;;;;;;1.42;1.00;;;;;;;;;;5027408;28;20433;-82
2021/03/08 14:09:46;;;;;;;2.45;1.20;;;;;;;;;;5045213;28;20758;-85
2021/03/08 14:12:12;;;;;;;2.75;1.20;;;;;;;;;;5023827;28;20393;-87
2021/03/08 14:14:39;;;;;;;1.73;1.05;;;;;;;;;;5026894;28;20460;-87
2021/03/08 14:17:05;;;;;;;2.63;1.20;;;;;;;;;;5030825;28;20384;-86
2021/03/08 14:19:31;;;;;;;3.20;1.17;;;;;;;;;;5031662;28;20444;-85
2021/03/08 14:21:59;;;;;;;2.35;1.15;;;;;;;;;;5028518;28;20484;-86
2021/03/08 14:24:25;;;;;;;2.22;0.93;;;;;;;;;;5027371;28;20389;-86
2021/03/08 14:26:51;;;;;;;3.55;1.20;;;;;;;;;;5026208;28;20775;-88
2021/03/08 14:29:17;;;;;;;1.50;1.02;;;;;;;;;;5021257;28;20854;-86
2021/03/08 14:31:43;;;;;;;1.80;1.05;;;;;;;;;;5024519;28;20382;-86
2021/03/08 14:34:09;;;;;;;2.23;1.10;;;;;;;;;;5028241;28;20871;-86
2021/03/08 14:36:35;;;;;;;1.75;1.00;;;;;;;;;;5029795;28;20380;-88
2021/03/08 14:39:01;;;;;;;1.05;0.90;;;;;;;;;;5029290;28;20439;-86
2021/03/08 14:41:27;;;;;;;2.33;1.00;;;;;;;;;;5027632;28;20393;-86